Time;durP1;ratioP1;P1;durP2;ratioP2;P2;SDS_P1;SDS_P2;PMS_P1;PMS_P2;Temp;Humidity;BMP_temperature;BMP_pressure;BME280_temperature;BME280_humidity;BME280_pressure;Samples;Min_cycle;Max_cycle;Signal;HPM_P1;HPM_P2
2022/09/29 00:01:47;;;;;;;5.50;2.47;;;;;;;;;;10355095;28;20033;-74
2022/09/29 00:06:47;;;;;;;5.20;3.47;;;;;;;;;;10358114;28;20113;-80
2022/09/29 00:11:48;;;;;;;4.90;2.43;;;;;;;;;;10356794;28;20053;-79
2022/09/29 00:16:48;;;;;;;9.98;2.90;;;;;;;;;;10356161;28;20053;-78
2022/09/29 00:21:48;;;;;;;8.88;2.75;;;;;;;;;;10357342;28;20022;-79
2022/09/29 00:26:48;;;;;;;4.18;2.70;;;;;;;;;;10356195;28;20049;-79
2022/09/29 00:31:49;;;;;;;12.03;9.87;;;;;;;;;;10355845;28;20026;-79
2022/09/29 00:36:49;;;;;;;7.65;3.10;;;;;;;;;;10356149;28;20042;-80
2022/09/29 00:41:49;;;;;;;8.83;3.20;;;;;;;;;;10356073;28;20452;-80
2022/09/29 00:46:59;;;;;;;6.72;3.45;;;;;;;;;;10357743;28;20172;-80
2022/09/29 00:52:15;;;;;;;12.52;3.05;;;;;;;;;;10356242;28;20052;-79
2022/09/29 00:57:17;;;;;;;4.45;3.20;;;;;;;;;;10353366;28;20037;-80
2022/09/29 01:02:19;;;;;;;5.85;3.03;;;;;;;;;;10364962;28;20072;-78
2022/09/29 01:07:23;;;;;;;6.20;3.22;;;;;;;;;;10353347;28;20034;-79
2022/09/29 01:12:23;;;;;;;6.63;2.85;;;;;;;;;;10972359;22;20120;-79
2022/09/29 01:17:23;;;;;;;16.17;3.60;;;;;;;;;;10346694;28;20049;-79
2022/09/29 01:22:29;;;;;;;5.50;2.73;;;;;;;;;;10338015;28;20490;-82
2022/09/29 01:27:45;;;;;;;4.40;2.17;;;;;;;;;;10347884;28;20728;-74
2022/09/29 01:33:10;;;;;;;6.25;2.58;;;;;;;;;;10348022;28;20026;-78
2022/09/29 01:38:14;;;;;;;7.80;2.33;;;;;;;;;;10330793;28;20021;-76
2022/09/29 01:43:20;;;;;;;9.00;2.65;;;;;;;;;;10313853;28;20033;-80
2022/09/29 01:48:23;;;;;;;5.80;2.80;;;;;;;;;;10308243;28;20035;-80
2022/09/29 01:53:34;;;;;;;5.07;2.85;;;;;;;;;;10294161;28;20057;-79
2022/09/29 01:58:41;;;;;;;8.07;2.53;;;;;;;;;;10310138;28;20026;-81
2022/09/29 02:03:58;;;;;;;9.47;2.87;;;;;;;;;;10320463;28;20612;-81
2022/09/29 02:09:01;;;;;;;8.38;2.75;;;;;;;;;;10304786;28;20034;-80
2022/09/29 02:14:11;;;;;;;4.63;2.20;;;;;;;;;;10320973;28;20497;-78
2022/09/29 02:19:19;;;;;;;5.75;2.63;;;;;;;;;;10319248;28;20018;-79
2022/09/29 02:24:19;;;;;;;;;;;;;;;;;;10315456;28;20114;-76
2022/09/29 02:29:20;;;;;;;6.68;3.25;;;;;;;;;;10308687;28;19910;-81
2022/09/29 02:34:21;;;;;;;3.92;2.70;;;;;;;;;;10311814;28;20499;-82
2022/09/29 02:39:40;;;;;;;7.38;2.85;;;;;;;;;;10317916;28;20473;-75
2022/09/29 02:44:59;;;;;;;7.10;3.58;;;;;;;;;;10318019;28;20073;-77
2022/09/29 02:50:00;;;;;;;4.78;3.08;;;;;;;;;;10319094;28;20019;-75
2022/09/29 02:55:06;;;;;;;8.23;2.85;;;;;;;;;;10318188;28;20023;-77
2022/09/29 03:00:10;;;;;;;8.52;3.35;;;;;;;;;;10319629;28;20062;-79
2022/09/29 03:05:12;;;;;;;4.10;2.63;;;;;;;;;;10318785;28;20481;-79
2022/09/29 03:10:13;;;;;;;10.23;3.10;;;;;;;;;;10320199;28;20050;-78
2022/09/29 03:15:14;;;;;;;5.47;3.17;;;;;;;;;;10318493;28;20030;-78
2022/09/29 03:20:14;;;;;;;8.20;3.08;;;;;;;;;;10318158;28;20022;-75
2022/09/29 03:25:14;;;;;;;3.55;2.50;;;;;;;;;;10320578;28;20120;-77
2022/09/29 03:30:15;;;;;;;6.97;2.78;;;;;;;;;;10320905;28;20492;-77
2022/09/29 03:35:15;;;;;;;7.43;2.67;;;;;;;;;;10318127;28;20033;-77
2022/09/29 03:40:15;;;;;;;9.00;3.30;;;;;;;;;;10317263;28;20024;-79
2022/09/29 03:45:16;;;;;;;7.15;3.42;;;;;;;;;;10313643;28;20035;-82
2022/09/29 03:50:16;;;;;;;5.22;2.78;;;;;;;;;;10317362;28;21370;-78
2022/09/29 03:55:16;;;;;;;6.47;3.20;;;;;;;;;;10317498;28;20031;-78
2022/09/29 04:00:16;;;;;;;9.05;4.07;;;;;;;;;;10316477;28;20027;-82
2022/09/29 04:05:17;;;;;;;6.80;2.80;;;;;;;;;;10315685;28;20030;-74
2022/09/29 04:10:17;;;;;;;8.93;3.23;;;;;;;;;;10298433;28;20065;-75
2022/09/29 04:15:17;;;;;;;10.45;4.22;;;;;;;;;;10313894;28;20036;-77
2022/09/29 04:20:18;;;;;;;11.30;5.22;;;;;;;;;;10316930;28;20038;-75
2022/09/29 04:25:18;;;;;;;12.40;4.75;;;;;;;;;;10317080;28;20129;-74
2022/09/29 04:30:18;;;;;;;9.57;4.63;;;;;;;;;;10312423;28;20030;-79
2022/09/29 04:35:18;;;;;;;11.13;5.30;;;;;;;;;;10315313;28;20416;-76
2022/09/29 04:40:19;;;;;;;26.42;9.23;;;;;;;;;;10313666;28;20493;-79
2022/09/29 04:45:19;;;;;;;14.65;6.10;;;;;;;;;;10310176;28;20027;-78
2022/09/29 04:50:20;;;;;;;12.15;5.25;;;;;;;;;;10315179;28;20530;-75
2022/09/29 04:55:20;;;;;;;16.93;6.70;;;;;;;;;;10315007;28;20141;-74
2022/09/29 05:00:20;;;;;;;16.95;7.18;;;;;;;;;;10313133;28;20125;-77
2022/09/29 05:05:20;;;;;;;24.30;7.68;;;;;;;;;;10310878;28;20033;-80
2022/09/29 05:10:21;;;;;;;17.48;6.30;;;;;;;;;;10312808;28;20072;-77
2022/09/29 05:15:21;;;;;;;11.27;5.25;;;;;;;;;;10310253;28;20026;-80
2022/09/29 05:20:21;;;;;;;8.53;4.23;;;;;;;;;;10314682;28;20037;-80
2022/09/29 05:25:22;;;;;;;10.55;5.18;;;;;;;;;;10311975;28;20019;-79
2022/09/29 05:30:22;;;;;;;19.55;6.05;;;;;;;;;;10314193;28;20070;-79
2022/09/29 05:35:22;;;;;;;8.95;4.88;;;;;;;;;;10313849;28;20031;-77
2022/09/29 05:40:23;;;;;;;21.98;5.18;;;;;;;;;;10311013;28;20034;-80
2022/09/29 05:45:23;;;;;;;6.50;3.60;;;;;;;;;;10307741;28;20459;-74
2022/09/29 05:50:24;;;;;;;13.93;3.88;;;;;;;;;;10315633;28;20034;-81
2022/09/29 05:55:24;;;;;;;11.03;3.80;;;;;;;;;;10315552;28;20198;-77
2022/09/29 06:00:24;;;;;;;13.85;2.65;;;;;;;;;;10316978;28;21332;-77
2022/09/29 06:05:25;;;;;;;15.50;4.07;;;;;;;;;;10316977;28;20044;-79
2022/09/29 06:10:25;;;;;;;17.93;3.40;;;;;;;;;;10316670;28;20069;-83
2022/09/29 06:15:25;;;;;;;15.18;5.22;;;;;;;;;;10317105;28;20355;-74
2022/09/29 06:20:26;;;;;;;16.63;3.15;;;;;;;;;;10316824;28;20033;-75
2022/09/29 06:25:26;;;;;;;7.70;3.20;;;;;;;;;;10318136;28;20053;-75
2022/09/29 06:30:26;;;;;;;14.10;3.42;;;;;;;;;;10315152;28;20057;-77
2022/09/29 06:40:45;;;;;;;14.27;3.80;;;;;;;;;;10316336;28;20050;-72
2022/09/29 06:45:46;;;;;;;10.88;2.50;;;;;;;;;;10308578;28;20436;-75
2022/09/29 06:50:47;;;;;;;12.77;2.65;;;;;;;;;;10307604;28;20034;-79
2022/09/29 06:55:55;;;;;;;10.38;2.95;;;;;;;;;;10315159;28;20022;-77
2022/09/29 07:00:58;;;;;;;9.98;2.63;;;;;;;;;;10309776;28;20028;-77
2022/09/29 07:06:03;;;;;;;11.82;2.53;;;;;;;;;;10311948;28;20033;-76
2022/09/29 07:11:04;;;;;;;13.05;2.90;;;;;;;;;;10318177;28;20057;-75
2022/09/29 07:16:08;;;;;;;11.30;3.00;;;;;;;;;;10311148;28;20121;-78
2022/09/29 07:21:09;;;;;;;6.03;2.50;;;;;;;;;;10320819;28;20467;-75
2022/09/29 07:26:10;;;;;;;6.82;2.28;;;;;;;;;;10306104;28;20053;-75
2022/09/29 07:31:12;;;;;;;8.15;2.25;;;;;;;;;;10312586;28;20077;-74
2022/09/29 07:36:13;;;;;;;8.30;1.67;;;;;;;;;;10322852;28;20104;-74
2022/09/29 07:41:13;;;;;;;3.63;2.35;;;;;;;;;;10292548;28;20442;-78
2022/09/29 07:46:14;;;;;;;2.15;1.55;;;;;;;;;;10308097;28;20024;-75
2022/09/29 07:51:15;;;;;;;6.03;2.00;;;;;;;;;;10307376;28;20468;-79
2022/09/29 07:56:17;;;;;;;6.30;1.90;;;;;;;;;;10312706;28;20028;-75
2022/09/29 08:01:18;;;;;;;6.97;1.80;;;;;;;;;;10312142;28;20037;-78
2022/09/29 08:06:19;;;;;;;3.72;1.80;;;;;;;;;;10315086;28;20400;-75
2022/09/29 08:11:19;;;;;;;6.30;1.85;;;;;;;;;;10312984;28;20054;-78
2022/09/29 08:16:20;;;;;;;8.57;1.35;;;;;;;;;;10312460;28;20089;-77
2022/09/29 08:21:20;;;;;;;8.97;1.37;;;;;;;;;;10311869;28;20531;-79
2022/09/29 08:26:21;;;;;;;5.32;1.63;;;;;;;;;;10311481;28;20124;-80
2022/09/29 08:31:21;;;;;;;12.38;2.97;;;;;;;;;;10312503;28;20034;-78
2022/09/29 08:36:22;;;;;;;6.57;1.67;;;;;;;;;;10314411;28;20018;-75
2022/09/29 08:41:22;;;;;;;4.73;2.33;;;;;;;;;;10311886;28;20058;-80
2022/09/29 08:46:26;;;;;;;12.73;1.90;;;;;;;;;;10312493;28;20495;-78
2022/09/29 08:51:36;;;;;;;16.02;2.58;;;;;;;;;;10309581;28;20076;-79
2022/09/29 08:56:37;;;;;;;7.57;2.65;;;;;;;;;;10311712;28;20021;-82
2022/09/29 09:01:41;;;;;;;4.80;1.95;;;;;;;;;;10314036;28;20061;-80
2022/09/29 09:07:00;;;;;;;8.73;2.67;;;;;;;;;;10313988;28;20508;-79
2022/09/29 09:12:15;;;;;;;12.25;2.28;;;;;;;;;;10311360;28;20520;-80
2022/09/29 09:17:21;;;;;;;14.30;2.10;;;;;;;;;;10312788;28;20010;-82
2022/09/29 09:22:23;;;;;;;5.78;2.63;;;;;;;;;;10320985;28;20057;-77
2022/09/29 09:27:25;;;;;;;8.88;2.15;;;;;;;;;;10321095;28;20029;-79
2022/09/29 09:32:27;;;;;;;7.90;2.10;;;;;;;;;;10321610;28;20469;-75
2022/09/29 09:37:40;;;;;;;5.63;2.03;;;;;;;;;;10325081;28;20022;-78
2022/09/29 09:42:43;;;;;;;6.88;1.50;;;;;;;;;;10319141;28;20060;-80
2022/09/29 09:47:49;;;;;;;7.03;1.45;;;;;;;;;;10321102;28;20066;-80
2022/09/29 09:52:50;;;;;;;5.43;1.65;;;;;;;;;;10321318;28;20591;-79
2022/09/29 09:57:59;;;;;;;9.33;1.87;;;;;;;;;;10319933;28;20029;-78
2022/09/29 10:03:04;;;;;;;3.42;0.75;;;;;;;;;;10319330;28;20018;-81
2022/09/29 10:08:25;;;;;;;8.05;1.48;;;;;;;;;;10320361;28;20041;-84
2022/09/29 10:13:26;;;;;;;2.50;0.88;;;;;;;;;;10332158;28;20038;-79
2022/09/29 10:18:29;;;;;;;14.02;1.27;;;;;;;;;;10319230;28;20049;-74
2022/09/29 10:23:31;;;;;;;5.47;0.90;;;;;;;;;;10315983;28;20453;-80
2022/09/29 10:28:43;;;;;;;4.45;1.30;;;;;;;;;;10317606;28;20033;-79
2022/09/29 10:33:51;;;;;;;4.32;0.82;;;;;;;;;;10318993;28;20029;-81
2022/09/29 10:38:52;;;;;;;2.30;1.13;;;;;;;;;;10333355;28;20021;-79
2022/09/29 10:43:52;;;;;;;4.00;0.90;;;;;;;;;;10316828;28;20507;-75
2022/09/29 10:49:08;;;;;;;2.75;1.08;;;;;;;;;;10318511;28;20042;-79
2022/09/29 10:54:09;;;;;;;4.85;1.58;;;;;;;;;;10316307;28;20169;-75
2022/09/29 10:59:10;;;;;;;3.10;1.80;;;;;;;;;;10317704;28;20074;-77
2022/09/29 11:04:31;;;;;;;4.00;1.65;;;;;;;;;;10318240;28;20027;-80
2022/09/29 11:09:36;;;;;;;4.53;1.90;;;;;;;;;;10317003;28;20026;-78
2022/09/29 11:14:36;;;;;;;4.75;2.40;;;;;;;;;;10318001;28;20022;-79
2022/09/29 11:19:37;;;;;;;5.47;2.22;;;;;;;;;;10317127;28;20030;-77
2022/09/29 11:24:52;;;;;;;8.27;2.58;;;;;;;;;;10317208;28;20104;-73
2022/09/29 11:30:08;;;;;;;3.20;1.70;;;;;;;;;;10332467;28;20112;-73
2022/09/29 11:35:11;;;;;;;7.70;2.38;;;;;;;;;;10332555;28;20053;-73
2022/09/29 11:40:17;;;;;;;1.83;1.50;;;;;;;;;;10310507;28;20118;-79
2022/09/29 11:45:21;;;;;;;5.80;2.42;;;;;;;;;;10312490;28;20092;-75
2022/09/29 11:50:22;;;;;;;11.63;2.72;;;;;;;;;;10314324;28;20481;-78
2022/09/29 11:55:44;;;;;;;4.35;2.22;;;;;;;;;;10313115;28;20038;-74
2022/09/29 12:00:59;;;;;;;2.83;1.15;;;;;;;;;;10328369;28;20080;-73
2022/09/29 12:06:05;;;;;;;5.03;1.45;;;;;;;;;;10316846;28;20080;-77
2022/09/29 12:11:23;;;;;;;6.50;1.25;;;;;;;;;;10312357;28;20080;-76
2022/09/29 12:16:27;;;;;;;5.32;1.00;;;;;;;;;;10325648;28;20022;-74
2022/09/29 12:21:33;;;;;;;1.75;1.00;;;;;;;;;;10311832;28;20030;-81
2022/09/29 12:26:33;;;;;;;3.15;1.00;;;;;;;;;;10325771;28;20030;-77
2022/09/29 12:31:36;;;;;;;3.15;0.85;;;;;;;;;;10327565;28;20026;-80
2022/09/29 12:36:52;;;;;;;3.20;0.80;;;;;;;;;;10312567;28;20479;-79
2022/09/29 12:41:59;;;;;;;3.65;0.98;;;;;;;;;;10308137;28;20085;-79
2022/09/29 12:47:19;;;;;;;1.55;1.02;;;;;;;;;;10312854;28;20030;-81
2022/09/29 12:52:23;;;;;;;1.10;0.85;;;;;;;;;;10308058;28;20045;-75
2022/09/29 12:57:27;;;;;;;7.88;0.95;;;;;;;;;;10321799;28;20050;-80
2022/09/29 13:02:39;;;;;;;3.67;1.83;;;;;;;;;;10319548;28;20038;-80
2022/09/29 13:07:39;;;;;;;1.73;0.60;;;;;;;;;;10333034;28;20485;-81
2022/09/29 13:12:40;;;;;;;5.82;0.90;;;;;;;;;;10319055;28;20061;-77
2022/09/29 13:17:59;;;;;;;6.53;0.77;;;;;;;;;;10317492;28;20547;-78
2022/09/29 13:23:16;;;;;;;1.15;0.80;;;;;;;;;;10331683;28;20046;-80
2022/09/29 13:28:23;;;;;;;4.10;0.70;;;;;;;;;;10333705;28;20090;-78
2022/09/29 13:33:24;;;;;;;1.95;0.85;;;;;;;;;;10330320;28;20100;-79
2022/09/29 13:38:29;;;;;;;8.73;1.02;;;;;;;;;;10319757;28;20116;-81
2022/09/29 13:43:37;;;;;;;2.58;0.75;;;;;;;;;;10316334;28;20027;-77
2022/09/29 13:48:46;;;;;;;0.90;0.70;;;;;;;;;;10314859;28;20069;-79
2022/09/29 13:53:46;;;;;;;1.38;0.68;;;;;;;;;;10328560;28;20503;-78
2022/09/29 13:58:46;;;;;;;2.50;1.20;;;;;;;;;;10318048;28;20050;-81
2022/09/29 14:03:47;;;;;;;4.25;1.23;;;;;;;;;;10314599;28;20826;-80
2022/09/29 14:08:50;;;;;;;4.40;0.90;;;;;;;;;;10318687;28;20113;-79
2022/09/29 14:19:13;;;;;;;3.15;1.23;;;;;;;;;;10419978;23;20544;-81
2022/09/29 14:24:32;;;;;;;6.43;1.60;;;;;;;;;;10275061;28;20026;-81
2022/09/29 14:29:34;;;;;;;9.43;2.20;;;;;;;;;;10276428;28;20109;-78
2022/09/29 14:34:34;;;;;;;12.82;3.42;;;;;;;;;;10275377;28;20034;-79
2022/09/29 14:39:38;;;;;;;5.88;2.90;;;;;;;;;;10279301;28;20029;-78
2022/09/29 14:55:41;;;;;;;10.23;3.83;;;;;;;;;;10278534;28;20642;-75
2022/09/29 15:00:44;;;;;;;9.18;3.90;;;;;;;;;;10277995;28;20031;-74
2022/09/29 15:05:45;;;;;;;10.55;4.72;;;;;;;;;;10277585;28;20082;-79
2022/09/29 15:10:45;;;;;;;10.73;4.30;;;;;;;;;;10277540;28;20089;-83
2022/09/29 15:15:47;;;;;;;11.77;4.57;;;;;;;;;;10277027;28;20137;-79
2022/09/29 15:21:03;;;;;;;17.90;5.68;;;;;;;;;;10260708;28;20027;-81
2022/09/29 15:26:04;;;;;;;12.70;5.47;;;;;;;;;;10276029;28;20030;-78
2022/09/29 15:31:06;;;;;;;9.38;5.13;;;;;;;;;;10276258;28;20086;-77
2022/09/29 15:36:13;;;;;;;8.80;5.05;;;;;;;;;;10277645;28;20049;-79
2022/09/29 15:41:16;;;;;;;9.77;4.57;;;;;;;;;;10273457;28;20022;-77
2022/09/29 15:46:21;;;;;;;20.73;5.43;;;;;;;;;;10276632;28;20026;-78
2022/09/29 15:51:21;;;;;;;14.73;5.18;;;;;;;;;;10275921;28;20030;-78
2022/09/29 15:56:21;;;;;;;13.30;5.95;;;;;;;;;;10275706;28;20469;-78
2022/09/29 16:01:21;;;;;;;9.85;5.90;;;;;;;;;;10275980;28;20027;-74
2022/09/29 16:06:23;;;;;;;16.13;7.88;;;;;;;;;;10276746;28;20023;-78
2022/09/29 16:11:25;;;;;;;17.55;5.82;;;;;;;;;;10273351;28;20039;-77
2022/09/29 16:16:27;;;;;;;8.48;4.88;;;;;;;;;;10274932;28;20302;-75
2022/09/29 16:21:32;;;;;;;10.52;5.65;;;;;;;;;;10275225;28;20061;-78
2022/09/29 16:26:34;;;;;;;11.82;6.22;;;;;;;;;;10276254;28;20461;-80
2022/09/29 16:31:42;;;;;;;18.75;7.22;;;;;;;;;;10275032;28;20046;-77
2022/09/29 16:36:47;;;;;;;10.40;6.00;;;;;;;;;;10273609;28;20077;-78
2022/09/29 16:41:48;;;;;;;13.70;6.15;;;;;;;;;;10274067;28;20262;-79
2022/09/29 16:46:51;;;;;;;16.83;6.78;;;;;;;;;;10275860;28;20027;-75
2022/09/29 16:51:52;;;;;;;18.98;7.15;;;;;;;;;;10276505;28;20033;-80
2022/09/29 16:57:16;;;;;;;11.85;6.18;;;;;;;;;;10275284;28;20027;-80
2022/09/29 17:02:17;;;;;;;18.95;6.72;;;;;;;;;;10275061;28;20380;-78
2022/09/29 17:07:18;;;;;;;14.45;5.93;;;;;;;;;;10274125;28;20026;-75
2022/09/29 17:12:19;;;;;;;7.32;4.50;;;;;;;;;;10275155;28;20027;-83
2022/09/29 17:17:21;;;;;;;11.45;5.15;;;;;;;;;;10273477;28;20047;-78
2022/09/29 17:22:25;;;;;;;10.23;4.80;;;;;;;;;;10274716;28;20118;-78
2022/09/29 17:32:45;;;;;;;23.27;9.68;;;;;;;;;;10273663;28;20035;-78
2022/09/29 17:37:46;;;;;;;17.80;6.07;;;;;;;;;;10275774;28;20036;-79
2022/09/29 17:42:47;;;;;;;12.63;5.63;;;;;;;;;;10279269;28;20428;-75
2022/09/29 17:47:48;;;;;;;9.48;4.97;;;;;;;;;;10280947;28;20433;-76
2022/09/29 17:52:48;;;;;;;8.23;4.60;;;;;;;;;;10297254;23;20141;-80
2022/09/29 17:57:51;;;;;;;11.02;5.43;;;;;;;;;;10271168;28;20031;-79
2022/09/29 18:02:55;;;;;;;14.68;6.22;;;;;;;;;;10266017;28;20027;-75
2022/09/29 18:07:56;;;;;;;12.02;6.18;;;;;;;;;;10261428;28;20052;-80
2022/09/29 18:12:56;;;;;;;16.27;7.40;;;;;;;;;;10332486;23;20049;-78
2022/09/29 18:17:58;;;;;;;15.75;7.00;;;;;;;;;;10311852;28;20486;-75
2022/09/29 18:22:59;;;;;;;14.00;6.65;;;;;;;;;;10315773;28;20089;-75
2022/09/29 18:28:00;;;;;;;16.58;7.13;;;;;;;;;;10317542;28;20088;-80
2022/09/29 18:33:01;;;;;;;11.43;5.53;;;;;;;;;;10316307;28;20037;-80
2022/09/29 18:38:02;;;;;;;14.30;5.53;;;;;;;;;;10316563;28;20180;-76
2022/09/29 18:43:05;;;;;;;14.60;6.28;;;;;;;;;;10316426;28;20076;-73
2022/09/29 18:48:05;;;;;;;14.00;7.03;;;;;;;;;;10316279;28;20536;-75
2022/09/29 18:53:06;;;;;;;9.32;5.55;;;;;;;;;;10314643;28;20026;-77
2022/09/29 18:58:08;;;;;;;9.45;5.25;;;;;;;;;;10313916;28;20026;-80
2022/09/29 19:03:08;;;;;;;10.75;6.20;;;;;;;;;;10289214;28;20033;-77
2022/09/29 19:08:10;;;;;;;8.82;6.13;;;;;;;;;;10308260;28;20039;-79
2022/09/29 19:13:15;;;;;;;10.63;6.00;;;;;;;;;;10320720;28;20106;-75
2022/09/29 19:18:21;;;;;;;18.38;7.30;;;;;;;;;;10306484;28;20048;-79
2022/09/29 19:23:22;;;;;;;13.18;6.53;;;;;;;;;;10309592;28;20256;-79
2022/09/29 19:28:25;;;;;;;9.82;5.60;;;;;;;;;;10310697;28;20030;-79
2022/09/29 19:33:26;;;;;;;12.18;6.47;;;;;;;;;;10295549;28;20038;-79
2022/09/29 19:38:26;;;;;;;17.10;9.32;;;;;;;;;;10309656;28;20500;-78
2022/09/29 19:43:26;;;;;;;11.97;7.20;;;;;;;;;;10307128;28;20034;-81
2022/09/29 19:48:26;;;;;;;16.17;7.90;;;;;;;;;;10310309;28;20269;-79
2022/09/29 19:53:27;;;;;;;17.63;7.88;;;;;;;;;;10308776;28;20134;-78
2022/09/29 19:58:27;;;;;;;14.88;7.93;;;;;;;;;;10311888;28;20507;-78
2022/09/29 20:03:28;;;;;;;14.18;7.60;;;;;;;;;;10308516;28;20022;-78
2022/09/29 20:08:28;;;;;;;17.67;6.88;;;;;;;;;;10310956;28;20440;-73
2022/09/29 20:13:29;;;;;;;14.93;6.63;;;;;;;;;;10299484;28;20609;-80
2022/09/29 20:18:29;;;;;;;16.95;8.15;;;;;;;;;;10308923;28;20096;-78
2022/09/29 20:23:30;;;;;;;14.55;7.72;;;;;;;;;;10291824;28;20085;-74
2022/09/29 20:28:31;;;;;;;15.68;7.68;;;;;;;;;;10310747;28;20151;-78
2022/09/29 20:33:32;;;;;;;18.08;7.60;;;;;;;;;;10307473;28;20465;-78
2022/09/29 20:38:38;;;;;;;22.63;8.95;;;;;;;;;;10310637;28;20039;-79
2022/09/29 20:43:38;;;;;;;21.13;9.00;;;;;;;;;;10306870;28;20019;-79
2022/09/29 20:48:39;;;;;;;20.13;9.53;;;;;;;;;;10304045;28;20034;-78
2022/09/29 20:53:41;;;;;;;16.77;9.00;;;;;;;;;;10310672;28;20034;-79
2022/09/29 20:58:43;;;;;;;15.85;9.00;;;;;;;;;;10308742;28;20518;-75
2022/09/29 21:03:47;;;;;;;17.15;8.65;;;;;;;;;;10308384;28;20042;-81
2022/09/29 21:08:47;;;;;;;21.90;9.60;;;;;;;;;;10310264;28;20026;-78
2022/09/29 21:13:48;;;;;;;32.42;10.43;;;;;;;;;;10312254;28;20031;-77
2022/09/29 21:18:48;;;;;;;17.60;10.27;;;;;;;;;;10315047;28;20516;-83
2022/09/29 21:23:49;;;;;;;21.42;12.30;;;;;;;;;;10322663;28;20376;-78
2022/09/29 21:28:53;;;;;;;18.40;9.23;;;;;;;;;;10313993;28;20088;-75
2022/09/29 21:33:55;;;;;;;18.80;9.35;;;;;;;;;;10317554;28;20096;-74
2022/09/29 21:38:59;;;;;;;18.88;9.70;;;;;;;;;;10315481;28;20487;-79
2022/09/29 21:44:00;;;;;;;18.92;10.20;;;;;;;;;;10334872;28;20041;-75
2022/09/29 21:49:02;;;;;;;21.45;9.95;;;;;;;;;;10310791;28;20030;-75
2022/09/29 21:54:03;;;;;;;26.95;12.05;;;;;;;;;;10311609;28;20497;-75
2022/09/29 21:59:03;;;;;;;19.98;10.00;;;;;;;;;;10309781;28;20026;-74
2022/09/29 22:04:03;;;;;;;21.92;10.40;;;;;;;;;;10302788;28;20464;-75
2022/09/29 22:09:05;;;;;;;20.08;9.45;;;;;;;;;;10303397;28;20710;-73
2022/09/29 22:14:05;;;;;;;24.55;9.90;;;;;;;;;;10304216;28;20033;-80
2022/09/29 22:19:05;;;;;;;19.40;9.15;;;;;;;;;;10301971;28;20022;-74
2022/09/29 22:24:06;;;;;;;19.75;9.63;;;;;;;;;;10311433;28;20025;-79
2022/09/29 22:29:06;;;;;;;23.23;11.50;;;;;;;;;;10314961;28;20030;-79
2022/09/29 22:34:07;;;;;;;31.38;12.38;;;;;;;;;;10305550;28;20022;-78
2022/09/29 22:39:07;;;;;;;21.03;11.40;;;;;;;;;;10301767;28;20015;-78
2022/09/29 22:44:07;;;;;;;21.13;11.38;;;;;;;;;;10302035;28;20566;-77
2022/09/29 22:49:08;;;;;;;18.63;10.50;;;;;;;;;;10300595;28;20540;-74
2022/09/29 22:54:08;;;;;;;26.67;11.07;;;;;;;;;;10300594;28;20015;-76
2022/09/29 22:59:08;;;;;;;20.83;11.13;;;;;;;;;;10304012;28;20393;-74
2022/09/29 23:04:09;;;;;;;26.10;11.77;;;;;;;;;;10301003;28;20046;-74
2022/09/29 23:09:09;;;;;;;23.65;11.40;;;;;;;;;;10300419;28;20396;-75
2022/09/29 23:14:10;;;;;;;23.85;11.68;;;;;;;;;;10300196;28;20030;-78
2022/09/29 23:19:11;;;;;;;22.35;10.70;;;;;;;;;;10300571;28;20018;-74
2022/09/29 23:24:11;;;;;;;29.10;12.57;;;;;;;;;;10289934;28;20030;-78
2022/09/29 23:29:12;;;;;;;22.60;11.50;;;;;;;;;;10298212;28;20429;-76
2022/09/29 23:34:12;;;;;;;25.00;11.45;;;;;;;;;;10301363;28;20054;-77
2022/09/29 23:39:12;;;;;;;21.67;9.88;;;;;;;;;;10298436;28;20045;-77
2022/09/29 23:44:17;;;;;;;26.17;10.20;;;;;;;;;;10300554;28;20109;-78
2022/09/29 23:49:19;;;;;;;20.30;9.70;;;;;;;;;;10300071;28;20588;-78
2022/09/29 23:54:21;;;;;;;20.67;9.90;;;;;;;;;;10301483;28;20105;-78
2022/09/29 23:59:21;;;;;;;29.23;10.32;;;;;;;;;;10299350;28;20049;-76
